createdAt,value
2022-10-12T00:04:27.548Z,13.52
2022-10-12T00:09:31.221Z,13.47
2022-10-12T00:14:37.133Z,13.45
2022-10-12T00:19:42.200Z,13.48
2022-10-12T00:24:45.909Z,13.42
2022-10-12T00:29:49.508Z,13.43
2022-10-12T00:34:54.325Z,13.46
2022-10-12T00:39:58.013Z,13.41
2022-10-12T00:45:01.369Z,13.40
2022-10-12T00:50:16.457Z,13.40
2022-10-12T00:55:22.895Z,13.44
2022-10-12T01:00:26.907Z,13.41
2022-10-12T01:05:31.945Z,13.35
2022-10-12T01:10:35.353Z,13.32
2022-10-12T01:15:43.157Z,13.34
2022-10-12T01:20:58.154Z,13.39
2022-10-12T01:26:33.138Z,13.39
2022-10-12T01:31:44.724Z,13.35
2022-10-12T01:36:54.036Z,13.36
2022-10-12T01:42:01.238Z,13.45
2022-10-12T01:47:06.069Z,13.42
2022-10-12T01:52:31.053Z,13.32
2022-10-12T01:57:47.836Z,13.31
2022-10-12T02:03:03.184Z,13.22
2022-10-12T02:08:14.371Z,13.14
2022-10-12T02:13:21.507Z,13.10
2022-10-12T02:18:26.482Z,13.06
2022-10-12T02:23:30.774Z,13.00
2022-10-12T02:28:37.627Z,12.99
2022-10-12T02:33:47.612Z,12.94
2022-10-12T02:38:56.044Z,12.94
2022-10-12T02:44:03.122Z,12.91
2022-10-12T02:49:11.766Z,12.94
2022-10-12T02:54:16.673Z,12.91
2022-10-12T02:59:20.466Z,12.99
2022-10-12T03:04:25.592Z,13.10
2022-10-12T03:09:29.122Z,13.08
2022-10-12T03:14:34.085Z,13.02
2022-10-12T03:19:40.014Z,13.06
2022-10-12T03:24:43.686Z,12.99
2022-10-12T03:29:47.308Z,12.96
2022-10-12T03:34:52.134Z,12.95
2022-10-12T03:39:55.509Z,12.96
2022-10-12T03:44:59.163Z,12.96
2022-10-12T03:50:03.975Z,12.95
2022-10-12T03:55:08.467Z,12.93
2022-10-12T04:00:13.456Z,12.85
2022-10-12T04:05:18.435Z,12.94
2022-10-12T04:10:21.843Z,12.89
2022-10-12T04:15:25.275Z,12.93
2022-10-12T04:20:30.096Z,13.00
2022-10-12T04:25:33.507Z,12.99
2022-10-12T04:30:36.876Z,12.90
2022-10-12T04:35:41.804Z,12.98
2022-10-12T04:40:47.734Z,12.96
2022-10-12T04:45:56.470Z,12.92
2022-10-12T04:51:01.222Z,12.95
2022-10-12T04:56:05.153Z,13.12
2022-10-12T05:01:08.885Z,13.17
2022-10-12T05:06:13.750Z,13.23
2022-10-12T05:11:17.179Z,13.31
2022-10-12T05:16:20.576Z,13.32
2022-10-12T05:21:25.735Z,13.40
2022-10-12T05:26:29.415Z,13.44
2022-10-12T05:31:33.123Z,13.55
2022-10-12T05:36:39.143Z,13.57
2022-10-12T05:41:44.469Z,13.54
2022-10-12T05:46:47.887Z,13.60
2022-10-12T05:51:52.671Z,13.72
2022-10-12T05:56:56.045Z,13.79
2022-10-12T06:01:59.886Z,13.88
2022-10-12T06:07:04.755Z,13.96
2022-10-12T06:12:09.181Z,14.04
2022-10-12T06:17:13.010Z,14.08
2022-10-12T06:22:17.829Z,14.21
2022-10-12T06:27:21.219Z,14.36
2022-10-12T06:32:24.845Z,14.47
2022-10-12T06:37:49.168Z,14.63
2022-10-12T06:42:58.469Z,14.71
2022-10-12T06:48:02.366Z,14.74
2022-10-12T06:53:07.177Z,14.84
2022-10-12T06:58:10.686Z,14.88
2022-10-12T07:03:15.355Z,14.93
2022-10-12T07:08:20.479Z,15.01
2022-10-12T07:13:23.889Z,15.04
2022-10-12T07:18:27.379Z,15.10
2022-10-12T07:23:34.044Z,15.12
2022-10-12T07:28:39.208Z,15.17
2022-10-12T07:33:42.601Z,15.32
2022-10-12T07:38:48.904Z,15.44
2022-10-12T07:43:56.791Z,15.55
2022-10-12T07:49:00.526Z,15.72
2022-10-12T07:54:05.467Z,16.02
2022-10-12T07:59:09.039Z,16.26
2022-10-12T08:04:13.044Z,16.28
2022-10-12T08:09:18.512Z,16.41
2022-10-12T08:14:22.181Z,16.60
2022-10-12T08:19:25.526Z,17.31
2022-10-12T08:24:30.321Z,18.05
2022-10-12T08:29:34.036Z,18.60
2022-10-12T08:34:37.531Z,19.26
2022-10-12T08:39:42.851Z,19.61
2022-10-12T08:45:10.227Z,19.96
2022-10-12T08:50:19.681Z,20.70
2022-10-12T08:55:30.236Z,20.44
2022-10-12T09:00:36.246Z,20.31
2022-10-12T09:05:45.021Z,21.16
2022-10-12T09:11:00.105Z,20.72
2022-10-12T09:16:07.710Z,20.08
2022-10-12T09:21:17.777Z,19.85
2022-10-12T09:26:34.714Z,20.27
2022-10-12T09:31:53.516Z,20.19
2022-10-12T09:36:57.094Z,20.03
2022-10-12T09:42:02.760Z,19.62
2022-10-12T09:47:08.004Z,19.31
2022-10-12T09:52:13.062Z,19.10
2022-10-12T09:57:24.004Z,18.97
2022-10-12T10:02:28.527Z,18.85
2022-10-12T10:07:34.629Z,18.71
2022-10-12T10:12:45.462Z,18.64
2022-10-12T10:17:53.829Z,18.61
2022-10-12T10:22:57.959Z,18.56
2022-10-12T10:28:25.250Z,18.58
2022-10-12T10:33:32.122Z,18.69
2022-10-12T10:38:55.811Z,18.71
2022-10-12T10:44:01.335Z,18.78
2022-10-12T10:49:08.242Z,18.81
2022-10-12T10:54:17.217Z,18.72
2022-10-12T10:59:30.523Z,18.76
2022-10-12T11:04:38.763Z,18.85
2022-10-12T11:09:45.351Z,18.97
2022-10-12T11:14:53.454Z,18.89
2022-10-12T11:20:07.418Z,18.92
2022-10-12T11:25:19.622Z,18.90
2022-10-12T11:30:27.614Z,18.91
2022-10-12T11:35:35.854Z,18.76
2022-10-12T11:41:34.276Z,18.83
2022-10-12T11:46:18.321Z,18.77
2022-10-12T11:51:21.965Z,18.90
2022-10-12T11:56:28.901Z,18.93
2022-10-12T12:01:48.764Z,18.94
2022-10-12T12:07:24.943Z,18.81
2022-10-12T12:12:30.305Z,18.78
2022-10-12T12:17:36.272Z,18.90
2022-10-12T12:22:51.100Z,19.02
2022-10-12T12:27:57.646Z,18.97
2022-10-12T12:33:04.680Z,19.11
2022-10-12T12:38:25.775Z,19.30
2022-10-12T12:44:03.435Z,19.56
2022-10-12T12:49:27.386Z,19.94
2022-10-12T12:54:31.387Z,19.77
2022-10-12T13:00:12.173Z,19.77
2022-10-12T13:05:43.847Z,19.85
2022-10-12T13:11:01.899Z,19.83
2022-10-12T13:17:09.526Z,19.85
2022-10-12T13:21:51.683Z,19.75
2022-10-12T13:26:59.718Z,19.67
2022-10-12T13:32:12.457Z,19.63
2022-10-12T13:37:18.929Z,19.46
2022-10-12T13:42:28.661Z,19.08
2022-10-12T13:47:34.385Z,18.96
2022-10-12T13:52:39.444Z,19.08
2022-10-12T13:57:46.661Z,18.98
2022-10-12T14:02:56.226Z,18.72
2022-10-12T14:08:07.099Z,18.64
2022-10-12T14:13:15.591Z,18.47
2022-10-12T14:18:37.598Z,18.09
2022-10-12T14:23:47.393Z,18.25
2022-10-12T14:28:51.162Z,18.09
2022-10-12T14:33:55.302Z,17.78
2022-10-12T14:39:14.466Z,17.75
2022-10-12T14:44:20.057Z,17.74
2022-10-12T14:49:25.570Z,17.57
2022-10-12T14:54:30.645Z,17.47
2022-10-12T14:59:34.075Z,17.42
2022-10-12T15:04:37.513Z,17.25
2022-10-12T15:09:42.308Z,17.12
2022-10-12T15:14:46.177Z,16.99
2022-10-12T15:19:51.042Z,16.86
2022-10-12T15:24:56.579Z,16.77
2022-10-12T15:30:00.283Z,16.68
2022-10-12T15:35:15.003Z,16.55
2022-10-12T15:40:22.030Z,16.44
2022-10-12T15:45:27.769Z,16.33
2022-10-12T15:50:37.248Z,16.16
2022-10-12T15:55:42.692Z,16.08
2022-10-12T16:00:46.188Z,15.94
2022-10-12T16:05:49.937Z,15.85
2022-10-12T16:10:54.778Z,15.79
2022-10-12T16:15:58.334Z,15.68
2022-10-12T16:21:01.739Z,15.62
2022-10-12T16:26:09.026Z,15.46
2022-10-12T16:31:15.458Z,15.37
2022-10-12T16:36:19.166Z,15.35
2022-10-12T16:41:24.400Z,15.29
2022-10-12T16:46:27.822Z,15.29
2022-10-12T16:51:31.259Z,15.23
2022-10-12T16:56:39.337Z,15.19
2022-10-12T17:01:43.425Z,15.17
2022-10-12T17:06:46.850Z,15.08
2022-10-12T17:11:51.653Z,14.98
2022-10-12T17:16:57.546Z,14.95
2022-10-12T17:22:04.420Z,15.00
2022-10-12T17:27:10.741Z,15.01
2022-10-12T17:32:14.476Z,14.95
2022-10-12T17:37:18.970Z,14.87
2022-10-12T17:42:23.770Z,14.88
2022-10-12T17:47:27.188Z,14.73
2022-10-12T17:52:30.926Z,14.78
2022-10-12T17:57:38.436Z,14.77
2022-10-12T18:02:41.847Z,14.58
2022-10-12T18:07:45.255Z,14.51
2022-10-12T18:12:50.040Z,14.51
2022-10-12T18:17:54.732Z,14.39
2022-10-12T18:22:58.565Z,14.31
2022-10-12T18:28:03.489Z,14.29
2022-10-12T18:33:06.913Z,14.30
2022-10-12T18:38:10.767Z,14.23
2022-10-12T18:43:16.195Z,14.07
2022-10-12T18:48:19.615Z,14.00
2022-10-12T18:53:27.255Z,14.04
2022-10-12T18:58:32.457Z,14.04
2022-10-12T19:03:35.844Z,14.00
2022-10-12T19:08:39.419Z,13.97
2022-10-12T19:13:44.718Z,13.86
2022-10-12T19:18:48.182Z,13.87
2022-10-12T19:23:51.579Z,13.85
2022-10-12T19:28:57.656Z,13.82
2022-10-12T19:34:02.719Z,13.79
2022-10-12T19:39:09.007Z,13.86
2022-10-12T19:44:14.225Z,13.92
2022-10-12T19:49:19.533Z,13.75
2022-10-12T19:54:22.903Z,13.72
2022-10-12T19:59:27.746Z,13.72
2022-10-12T20:04:31.536Z,13.67
2022-10-12T20:09:34.911Z,13.64
2022-10-12T20:14:40.102Z,13.60
2022-10-12T20:19:43.538Z,13.58
2022-10-12T20:24:47.052Z,13.47
2022-10-12T20:29:53.009Z,13.58
2022-10-12T20:34:57.240Z,13.50
2022-10-12T20:40:00.896Z,13.44
2022-10-12T20:45:06.404Z,13.46
2022-10-12T20:50:10.861Z,13.36
2022-10-12T20:55:14.279Z,13.31
2022-10-12T21:00:19.276Z,13.41
2022-10-12T21:05:22.986Z,13.46
2022-10-12T21:10:26.431Z,13.37
2022-10-12T21:15:31.181Z,13.40
2022-10-12T21:20:34.596Z,13.44
2022-10-12T21:25:38.061Z,13.37
2022-10-12T21:30:43.034Z,13.24
2022-10-12T21:35:46.565Z,13.36
2022-10-12T21:40:50.251Z,13.37
2022-10-12T21:45:55.130Z,13.26
2022-10-12T21:50:58.872Z,13.18
2022-10-12T21:56:06.678Z,13.18
2022-10-12T22:01:14.263Z,13.14
2022-10-12T22:06:19.600Z,13.08
2022-10-12T22:11:27.273Z,13.03
2022-10-12T22:16:32.899Z,12.94
2022-10-12T22:21:37.764Z,12.91
2022-10-12T22:26:41.793Z,12.90
2022-10-12T22:31:46.902Z,12.92
2022-10-12T22:36:52.048Z,12.91
2022-10-12T22:42:00.869Z,12.89
2022-10-12T22:47:06.072Z,12.88
2022-10-12T22:52:09.409Z,12.94
2022-10-12T22:57:13.151Z,12.87
2022-10-12T23:02:18.122Z,12.83
2022-10-12T23:07:21.979Z,12.85
2022-10-12T23:12:25.424Z,12.69
2022-10-12T23:17:30.364Z,12.69
2022-10-12T23:22:33.810Z,12.65
2022-10-12T23:27:37.458Z,12.69
2022-10-12T23:32:42.286Z,12.80
2022-10-12T23:37:45.709Z,12.73
2022-10-12T23:42:49.148Z,12.63
2022-10-12T23:47:54.199Z,12.61
2022-10-12T23:52:57.593Z,12.60
2022-10-12T23:58:01.145Z,12.78
